createdAt,value
2023-05-17T00:00:19.179Z,34.20
2023-05-17T00:00:50.515Z,34.12
2023-05-17T00:01:21.838Z,34.02
2023-05-17T00:01:53.198Z,34.30
2023-05-17T00:02:24.690Z,33.97
2023-05-17T00:02:56.164Z,34.14
2023-05-17T00:03:27.540Z,34.05
2023-05-17T00:03:58.903Z,34.22
2023-05-17T00:04:30.310Z,34.23
2023-05-17T00:05:01.759Z,34.29
2023-05-17T00:05:33.125Z,34.15
2023-05-17T00:06:04.580Z,34.08
2023-05-17T00:06:36.082Z,34.29
2023-05-17T00:07:07.448Z,34.00
2023-05-17T00:07:38.759Z,34.16
2023-05-17T00:08:10.091Z,34.32
2023-05-17T00:08:41.444Z,34.20
2023-05-17T00:09:12.749Z,34.27
2023-05-17T00:09:44.120Z,34.38
2023-05-17T00:10:15.438Z,34.08
2023-05-17T00:10:46.801Z,34.09
2023-05-17T00:11:18.086Z,34.19
2023-05-17T00:11:49.412Z,34.08
2023-05-17T00:12:20.723Z,34.19
2023-05-17T00:12:52.137Z,34.30
2023-05-17T00:13:23.468Z,34.06
2023-05-17T00:13:54.786Z,34.33
2023-05-17T00:14:26.156Z,34.20
2023-05-17T00:14:57.507Z,34.13
2023-05-17T00:15:29.025Z,34.08
2023-05-17T00:16:00.659Z,34.26
2023-05-17T00:16:31.997Z,34.05
2023-05-17T00:17:03.390Z,34.11
2023-05-17T00:17:34.820Z,33.95
2023-05-17T00:18:06.391Z,34.27
2023-05-17T00:18:38.070Z,34.02
2023-05-17T00:19:09.856Z,34.04
2023-05-17T00:19:41.373Z,34.30
2023-05-17T00:20:12.830Z,34.05
2023-05-17T00:20:44.136Z,34.01
2023-05-17T00:21:15.563Z,34.00
2023-05-17T00:21:46.920Z,34.19
2023-05-17T00:22:18.261Z,34.01
2023-05-17T00:22:49.630Z,34.14
2023-05-17T00:23:20.982Z,34.31
2023-05-17T00:23:52.305Z,34.07
2023-05-17T00:24:23.632Z,34.27
2023-05-17T00:24:54.981Z,34.18
2023-05-17T00:25:26.402Z,34.42
2023-05-17T00:25:57.799Z,34.38
2023-05-17T00:26:29.128Z,34.38
2023-05-17T00:27:00.579Z,34.38
2023-05-17T00:27:31.940Z,34.44
2023-05-17T00:28:03.283Z,34.11
2023-05-17T00:28:34.590Z,34.32
2023-05-17T00:29:05.897Z,34.27
2023-05-17T00:29:37.218Z,34.28
2023-05-17T00:30:08.621Z,34.36
2023-05-17T00:30:39.953Z,34.20
2023-05-17T00:31:11.285Z,34.07
2023-05-17T00:31:42.605Z,34.40
2023-05-17T00:32:13.947Z,34.11
2023-05-17T00:32:45.344Z,34.08
2023-05-17T00:33:16.721Z,34.22
2023-05-17T00:33:48.064Z,34.12
2023-05-17T00:34:19.401Z,34.27
2023-05-17T00:34:50.725Z,34.22
2023-05-17T00:35:22.384Z,34.04
2023-05-17T00:35:53.838Z,34.13
2023-05-17T00:36:25.173Z,34.21
2023-05-17T00:36:56.474Z,34.34
2023-05-17T00:37:27.903Z,34.40
2023-05-17T00:37:59.314Z,34.11
2023-05-17T00:38:30.636Z,34.16
2023-05-17T00:39:02.010Z,34.26
2023-05-17T00:39:33.426Z,34.43
2023-05-17T00:40:05.258Z,33.98
2023-05-17T00:40:36.594Z,34.21
2023-05-17T00:41:08.002Z,34.04
2023-05-17T00:41:39.303Z,34.13
2023-05-17T00:42:11.036Z,34.13
2023-05-17T00:42:42.356Z,34.22
2023-05-17T00:43:13.683Z,34.29
2023-05-17T00:43:45.034Z,34.33
2023-05-17T00:44:16.371Z,34.13
2023-05-17T00:44:47.699Z,34.34
2023-05-17T00:45:19.102Z,34.42
2023-05-17T00:45:50.484Z,34.07
2023-05-17T00:46:21.816Z,34.17
2023-05-17T00:46:53.149Z,34.44
2023-05-17T00:47:24.485Z,34.22
2023-05-17T00:47:55.983Z,34.51
2023-05-17T00:48:28.366Z,34.23
2023-05-17T00:48:59.882Z,34.29
2023-05-17T00:49:31.275Z,34.14
2023-05-17T00:50:02.832Z,34.30
2023-05-17T00:50:34.266Z,34.11
2023-05-17T00:51:05.648Z,34.26
2023-05-17T00:51:36.971Z,34.24
2023-05-17T00:52:08.322Z,34.24
2023-05-17T00:52:39.635Z,34.18
2023-05-17T00:53:10.953Z,34.37
2023-05-17T00:53:42.303Z,34.47
2023-05-17T00:54:13.602Z,34.33
2023-05-17T00:54:45.119Z,34.13
2023-05-17T00:55:16.449Z,34.12
2023-05-17T00:55:47.762Z,34.40
2023-05-17T00:56:19.056Z,34.52
2023-05-17T00:56:50.385Z,34.17
2023-05-17T00:57:21.731Z,34.31
2023-05-17T00:57:53.200Z,34.31
2023-05-17T00:58:24.546Z,34.42
2023-05-17T00:58:55.877Z,34.41
2023-05-17T00:59:27.262Z,34.34
2023-05-17T00:59:58.591Z,34.27
2023-05-17T01:00:29.953Z,34.32
2023-05-17T01:01:01.295Z,34.16
2023-05-17T01:01:32.633Z,34.52
2023-05-17T01:02:04.128Z,34.19
2023-05-17T01:02:35.532Z,34.23
2023-05-17T01:03:07.037Z,34.45
2023-05-17T01:03:38.732Z,34.21
2023-05-17T01:04:10.315Z,34.12
2023-05-17T01:04:41.900Z,34.23
2023-05-17T01:05:13.259Z,34.24
2023-05-17T01:05:44.648Z,34.24
2023-05-17T01:06:15.980Z,34.27
2023-05-17T01:06:47.367Z,34.18
2023-05-17T01:07:18.697Z,34.41
2023-05-17T01:07:50.041Z,34.36
2023-05-17T01:08:21.351Z,34.29
2023-05-17T01:08:52.731Z,34.30
2023-05-17T01:09:24.074Z,34.54
2023-05-17T01:09:55.382Z,34.32
2023-05-17T01:10:30.423Z,34.43
2023-05-17T01:11:06.337Z,34.13
2023-05-17T01:11:56.163Z,34.28
2023-05-17T01:12:32.658Z,34.25
2023-05-17T01:13:03.982Z,34.41
2023-05-17T01:13:46.858Z,34.09
2023-05-17T01:14:18.134Z,34.45
2023-05-17T01:15:03.161Z,34.25
2023-05-17T01:15:35.081Z,34.22
2023-05-17T01:16:10.783Z,34.28
2023-05-17T01:17:00.696Z,34.63
2023-05-17T01:17:41.242Z,34.21
2023-05-17T01:18:17.440Z,34.42
2023-05-17T01:18:52.397Z,34.27
2023-05-17T01:19:42.718Z,34.28
2023-05-17T01:20:14.058Z,34.54
2023-05-17T01:20:45.477Z,34.48
2023-05-17T01:21:39.941Z,34.34
2023-05-17T01:22:15.793Z,34.18
2023-05-17T01:23:02.367Z,34.26
2023-05-17T01:23:43.193Z,34.15
2023-05-17T01:24:25.191Z,34.19
2023-05-17T01:25:14.191Z,34.46
2023-05-17T01:25:57.561Z,34.44
2023-05-17T01:26:36.986Z,34.21
2023-05-17T01:27:08.322Z,34.29
2023-05-17T01:27:40.016Z,34.25
2023-05-17T01:28:11.373Z,34.34
2023-05-17T01:28:43.881Z,34.29
2023-05-17T01:29:15.194Z,34.17
2023-05-17T01:29:46.535Z,34.22
2023-05-17T01:30:18.165Z,34.28
2023-05-17T01:30:50.197Z,34.30
2023-05-17T01:31:21.569Z,34.16
2023-05-17T01:31:53.238Z,34.23
2023-05-17T01:32:24.807Z,34.40
2023-05-17T01:32:56.507Z,34.47
2023-05-17T01:33:27.988Z,34.30
2023-05-17T01:33:59.409Z,34.18
2023-05-17T01:34:30.775Z,34.28
2023-05-17T01:35:04.052Z,34.42
2023-05-17T01:35:35.369Z,34.48
2023-05-17T01:36:06.942Z,34.29
2023-05-17T01:36:38.304Z,34.12
2023-05-17T01:37:09.655Z,34.19
2023-05-17T01:37:41.003Z,34.48
2023-05-17T01:38:12.329Z,34.29
2023-05-17T01:38:43.657Z,34.26
2023-05-17T01:39:14.946Z,34.17
2023-05-17T01:39:46.367Z,34.13
2023-05-17T01:40:17.700Z,34.17
2023-05-17T01:40:52.352Z,34.27
2023-05-17T01:41:27.369Z,34.35
2023-05-17T01:42:00.241Z,34.33
2023-05-17T01:42:32.148Z,34.28
2023-05-17T01:43:35.753Z,34.28
2023-05-17T01:44:18.775Z,34.31
2023-05-17T01:44:57.013Z,34.29
2023-05-17T01:45:30.631Z,34.50
2023-05-17T01:46:16.352Z,34.12
2023-05-17T01:46:47.739Z,34.28
2023-05-17T01:47:24.727Z,34.40
2023-05-17T01:47:59.625Z,34.23
2023-05-17T01:48:39.322Z,34.39
2023-05-17T01:49:29.322Z,34.18
2023-05-17T01:50:00.650Z,34.18
2023-05-17T01:50:32.670Z,34.36
2023-05-17T01:51:04.094Z,34.31
2023-05-17T01:51:37.120Z,34.50
2023-05-17T01:52:17.493Z,34.43
2023-05-17T01:52:48.782Z,34.51
2023-05-17T01:53:29.004Z,34.41
2023-05-17T01:54:05.092Z,34.39
2023-05-17T01:54:37.202Z,34.42
2023-05-17T01:55:37.338Z,34.08
2023-05-17T01:56:09.584Z,34.18
2023-05-17T01:56:43.906Z,34.28
2023-05-17T01:57:15.238Z,34.48
2023-05-17T01:57:46.897Z,34.39
2023-05-17T01:58:18.419Z,34.23
2023-05-17T01:58:49.724Z,34.46
2023-05-17T01:59:22.389Z,34.46
2023-05-17T01:59:53.688Z,34.27
2023-05-17T02:00:25.244Z,34.24
2023-05-17T02:00:56.830Z,34.24
2023-05-17T02:01:28.157Z,34.40
2023-05-17T02:01:59.624Z,34.35
2023-05-17T02:02:31.056Z,34.44
2023-05-17T02:03:02.571Z,34.28
2023-05-17T02:03:33.952Z,34.21
2023-05-17T02:04:05.341Z,34.33
2023-05-17T02:04:36.765Z,34.29
2023-05-17T02:05:08.420Z,34.18
2023-05-17T02:05:39.831Z,34.50
2023-05-17T02:06:11.182Z,34.51
2023-05-17T02:06:42.505Z,34.56
2023-05-17T02:07:13.827Z,34.40
2023-05-17T02:07:45.176Z,34.28
2023-05-17T02:08:16.474Z,34.44
2023-05-17T02:08:47.842Z,34.45
2023-05-17T02:09:19.185Z,34.27
2023-05-17T02:09:50.556Z,34.39
2023-05-17T02:10:21.982Z,34.33
2023-05-17T02:10:53.421Z,34.37
2023-05-17T02:11:24.752Z,34.52
2023-05-17T02:11:56.203Z,34.45
2023-05-17T02:12:27.540Z,34.40
2023-05-17T02:12:58.888Z,34.45
2023-05-17T02:13:30.273Z,34.49
2023-05-17T02:14:01.599Z,34.33
2023-05-17T02:14:32.959Z,34.22
2023-05-17T02:15:04.490Z,34.48
2023-05-17T02:15:35.802Z,34.44
2023-05-17T02:16:07.160Z,34.17
2023-05-17T02:16:38.498Z,34.34
2023-05-17T02:17:09.805Z,34.40
2023-05-17T02:17:41.236Z,34.42
2023-05-17T02:18:12.758Z,34.54
2023-05-17T02:18:44.149Z,34.32
2023-05-17T02:19:15.596Z,34.23
2023-05-17T02:19:46.979Z,34.52
2023-05-17T02:20:18.374Z,34.42
2023-05-17T02:20:49.707Z,34.48
2023-05-17T02:21:21.018Z,34.47
2023-05-17T02:21:52.383Z,34.20
2023-05-17T02:22:23.708Z,34.53
2023-05-17T02:22:55.039Z,34.36
2023-05-17T02:23:26.356Z,34.40
2023-05-17T02:23:57.684Z,34.43
2023-05-17T02:24:29.045Z,34.17
2023-05-17T02:25:00.369Z,34.32
2023-05-17T02:25:31.806Z,34.23
2023-05-17T02:26:03.207Z,34.19
2023-05-17T02:26:34.537Z,34.25
2023-05-17T02:27:05.999Z,34.23
2023-05-17T02:27:37.354Z,34.48
2023-05-17T02:28:08.700Z,34.47
2023-05-17T02:28:40.081Z,34.27
2023-05-17T02:29:11.480Z,34.51
2023-05-17T02:29:42.859Z,34.38
2023-05-17T02:30:15.800Z,34.28
2023-05-17T02:30:49.162Z,34.50
2023-05-17T02:31:20.513Z,34.55
2023-05-17T02:31:51.869Z,34.43
2023-05-17T02:32:23.316Z,34.44
2023-05-17T02:32:54.758Z,34.46
2023-05-17T02:33:26.249Z,34.37
2023-05-17T02:33:57.646Z,34.51
2023-05-17T02:34:28.992Z,34.27
2023-05-17T02:35:00.352Z,34.51
2023-05-17T02:35:31.757Z,34.52
2023-05-17T02:36:03.166Z,34.51
2023-05-17T02:36:34.504Z,34.24
2023-05-17T02:37:05.858Z,34.45
2023-05-17T02:37:37.195Z,34.28
2023-05-17T02:38:08.587Z,34.31
2023-05-17T02:38:39.892Z,34.23
2023-05-17T02:39:11.249Z,34.53
2023-05-17T02:39:42.574Z,34.48
2023-05-17T02:40:13.921Z,34.42
2023-05-17T02:40:45.266Z,34.52
2023-05-17T02:41:16.600Z,34.50
2023-05-17T02:41:48.026Z,34.38
2023-05-17T02:42:19.404Z,34.46
2023-05-17T02:42:50.724Z,34.33
2023-05-17T02:43:22.036Z,34.38
2023-05-17T02:43:53.369Z,34.52
2023-05-17T02:44:24.705Z,34.47
2023-05-17T02:44:56.045Z,34.34
2023-05-17T02:45:27.530Z,34.31
2023-05-17T02:45:59.102Z,34.42
2023-05-17T02:46:30.423Z,34.55
2023-05-17T02:47:01.806Z,34.51
2023-05-17T02:47:33.167Z,34.51
2023-05-17T02:48:04.594Z,34.25
2023-05-17T02:48:35.962Z,34.18
2023-05-17T02:49:07.256Z,34.31
2023-05-17T02:49:38.609Z,34.61
2023-05-17T02:50:10.074Z,34.54
2023-05-17T02:50:41.471Z,34.29
2023-05-17T02:51:12.786Z,34.32
2023-05-17T02:51:44.132Z,34.29
2023-05-17T02:52:15.645Z,34.45
2023-05-17T02:52:48.992Z,34.49
2023-05-17T02:53:20.437Z,34.32
2023-05-17T02:53:51.765Z,34.38
2023-05-17T02:54:23.133Z,34.27
2023-05-17T02:54:54.434Z,34.54
2023-05-17T02:55:25.965Z,34.53
2023-05-17T02:55:57.445Z,34.53
2023-05-17T02:56:28.749Z,34.50
2023-05-17T02:57:00.051Z,34.33
2023-05-17T02:57:31.439Z,34.31
2023-05-17T02:58:02.913Z,34.39
2023-05-17T02:58:34.226Z,34.38
2023-05-17T02:59:05.580Z,34.53
2023-05-17T02:59:37.100Z,34.33
2023-05-17T03:00:08.586Z,34.32
2023-05-17T03:00:39.923Z,34.46
2023-05-17T03:01:11.260Z,34.38
2023-05-17T03:01:42.572Z,34.47
2023-05-17T03:02:13.924Z,34.53
2023-05-17T03:02:45.372Z,34.41
2023-05-17T03:03:16.890Z,34.39
2023-05-17T03:03:48.506Z,34.32
2023-05-17T03:04:20.029Z,34.48
2023-05-17T03:04:51.419Z,34.54
2023-05-17T03:05:22.907Z,34.58
2023-05-17T03:05:54.225Z,34.29
2023-05-17T03:06:25.591Z,34.55
2023-05-17T03:06:56.893Z,34.31
2023-05-17T03:07:28.225Z,34.51
2023-05-17T03:07:59.526Z,34.69
2023-05-17T03:08:30.854Z,34.63
2023-05-17T03:09:02.129Z,34.62
2023-05-17T03:09:33.473Z,34.68
2023-05-17T03:10:04.967Z,34.60
2023-05-17T03:10:36.274Z,34.60
2023-05-17T03:11:07.587Z,34.71
2023-05-17T03:11:39.003Z,34.54
2023-05-17T03:12:10.304Z,34.57
2023-05-17T03:12:41.598Z,34.54
2023-05-17T03:13:12.918Z,34.73
2023-05-17T03:13:44.216Z,34.55
2023-05-17T03:14:15.518Z,34.56
2023-05-17T03:14:46.835Z,34.56
2023-05-17T03:15:18.225Z,34.52
2023-05-17T03:15:49.561Z,34.53
2023-05-17T03:16:20.879Z,34.62
2023-05-17T03:16:52.310Z,34.68
2023-05-17T03:17:23.709Z,34.65
2023-05-17T03:17:55.521Z,34.50
2023-05-17T03:18:27.067Z,34.63
2023-05-17T03:18:58.681Z,34.72
2023-05-17T03:19:30.132Z,34.75
2023-05-17T03:20:01.510Z,34.57
2023-05-17T03:20:32.815Z,34.58
2023-05-17T03:21:04.138Z,34.59
2023-05-17T03:21:35.458Z,34.68
2023-05-17T03:22:06.783Z,34.77
2023-05-17T03:22:38.106Z,34.79
2023-05-17T03:23:09.432Z,34.54
2023-05-17T03:23:40.824Z,34.81
2023-05-17T03:24:12.126Z,34.62
2023-05-17T03:24:43.424Z,34.58
2023-05-17T03:25:14.736Z,34.78
2023-05-17T03:25:46.046Z,34.59
2023-05-17T03:26:17.386Z,34.48
2023-05-17T03:26:48.708Z,34.46
2023-05-17T03:27:20.087Z,34.66
2023-05-17T03:27:51.443Z,34.71
2023-05-17T03:28:22.773Z,34.61
2023-05-17T03:28:54.146Z,34.51
2023-05-17T03:29:25.442Z,34.56
2023-05-17T03:29:56.780Z,34.71
2023-05-17T03:30:28.203Z,34.76
2023-05-17T03:30:59.672Z,34.63
2023-05-17T03:31:31.121Z,34.59
2023-05-17T03:32:02.493Z,34.61
2023-05-17T03:32:33.944Z,34.74
2023-05-17T03:33:05.368Z,34.76
2023-05-17T03:33:36.889Z,34.65
2023-05-17T03:34:08.319Z,34.78
2023-05-17T03:34:39.690Z,34.71
2023-05-17T03:35:11.010Z,34.64
2023-05-17T03:35:42.340Z,34.61
2023-05-17T03:36:13.952Z,34.54
2023-05-17T03:36:45.273Z,34.58
2023-05-17T03:37:16.588Z,34.64
2023-05-17T03:37:47.916Z,34.47
2023-05-17T03:38:19.221Z,34.68
2023-05-17T03:38:50.571Z,34.72
2023-05-17T03:39:21.927Z,34.67
2023-05-17T03:39:53.260Z,34.52
2023-05-17T03:40:24.604Z,34.61
2023-05-17T03:40:55.953Z,34.67
2023-05-17T03:41:27.437Z,34.38
2023-05-17T03:41:58.763Z,34.61
2023-05-17T03:42:30.076Z,34.59
2023-05-17T03:43:01.458Z,34.72
2023-05-17T03:43:32.786Z,34.65
2023-05-17T03:44:04.127Z,34.73
2023-05-17T03:44:35.447Z,34.82
2023-05-17T03:45:07.010Z,34.67
2023-05-17T03:45:38.429Z,34.66
2023-05-17T03:46:09.741Z,34.66
2023-05-17T03:46:41.119Z,34.76
2023-05-17T03:47:12.475Z,34.76
2023-05-17T03:47:43.856Z,34.44
2023-05-17T03:48:15.285Z,34.75
2023-05-17T03:48:46.659Z,34.39
2023-05-17T03:49:18.115Z,34.74
2023-05-17T03:49:49.770Z,34.53
2023-05-17T03:50:21.079Z,34.61
2023-05-17T03:50:52.382Z,34.62
2023-05-17T03:51:23.687Z,34.89
2023-05-17T03:51:55.052Z,34.80
2023-05-17T03:52:26.364Z,34.56
2023-05-17T03:52:57.695Z,34.71
2023-05-17T03:53:29.034Z,34.75
2023-05-17T03:54:00.510Z,34.65
2023-05-17T03:54:31.827Z,34.64
2023-05-17T03:55:03.190Z,34.67
2023-05-17T03:55:34.550Z,34.63
2023-05-17T03:56:05.953Z,34.58
2023-05-17T03:56:37.359Z,34.45
2023-05-17T03:57:08.735Z,34.71
2023-05-17T03:57:40.081Z,34.52
2023-05-17T03:58:11.403Z,34.49
2023-05-17T03:58:42.725Z,34.35
2023-05-17T03:59:14.049Z,34.60
2023-05-17T03:59:45.446Z,34.74
2023-05-17T04:00:16.824Z,34.70
2023-05-17T04:00:48.248Z,34.55
2023-05-17T04:01:19.574Z,34.73
2023-05-17T04:01:50.897Z,34.60
2023-05-17T04:02:22.356Z,34.73
2023-05-17T04:02:53.700Z,34.85
2023-05-17T04:03:25.066Z,34.62
2023-05-17T04:03:56.451Z,34.82
2023-05-17T04:04:27.984Z,34.56
2023-05-17T04:04:59.415Z,34.54
2023-05-17T04:05:31.082Z,34.77
2023-05-17T04:06:05.406Z,34.54
2023-05-17T04:06:36.808Z,34.51
2023-05-17T04:07:08.144Z,34.83
2023-05-17T04:07:39.502Z,34.67
2023-05-17T04:08:10.852Z,34.84
2023-05-17T04:08:42.167Z,34.67
2023-05-17T04:09:13.566Z,34.52
2023-05-17T04:09:44.955Z,34.61
2023-05-17T04:10:16.306Z,34.66
2023-05-17T04:10:47.637Z,34.76
2023-05-17T04:11:18.994Z,34.97
2023-05-17T04:11:50.325Z,34.72
2023-05-17T04:12:21.662Z,34.65
2023-05-17T04:12:53.017Z,34.71
2023-05-17T04:13:24.357Z,34.60
2023-05-17T04:13:55.672Z,34.62
2023-05-17T04:14:27.065Z,35.01
2023-05-17T04:14:58.370Z,34.60
2023-05-17T04:15:29.794Z,35.02
2023-05-17T04:16:01.232Z,34.88
2023-05-17T04:16:32.641Z,34.73
2023-05-17T04:17:03.993Z,34.80
2023-05-17T04:17:35.381Z,34.95
2023-05-17T04:18:06.856Z,34.81
2023-05-17T04:18:38.582Z,34.73
2023-05-17T04:19:10.148Z,34.76
2023-05-17T04:19:41.655Z,34.94
2023-05-17T04:20:13.029Z,34.91
2023-05-17T04:20:44.353Z,35.01
2023-05-17T04:21:15.689Z,34.65
2023-05-17T04:21:47.027Z,35.03
2023-05-17T04:22:18.371Z,34.77
2023-05-17T04:22:49.694Z,34.91
2023-05-17T04:23:21.037Z,34.70
2023-05-17T04:23:52.378Z,35.04
2023-05-17T04:24:23.674Z,34.87
2023-05-17T04:24:55.007Z,34.96
2023-05-17T04:25:26.485Z,35.01
2023-05-17T04:25:57.974Z,35.07
2023-05-17T04:26:29.294Z,34.88
2023-05-17T04:27:03.277Z,35.14
2023-05-17T04:27:34.880Z,35.01
2023-05-17T04:28:06.207Z,34.96
2023-05-17T04:28:37.539Z,34.94
2023-05-17T04:29:08.890Z,34.91
2023-05-17T04:29:40.180Z,34.87
2023-05-17T04:30:11.904Z,35.09
2023-05-17T04:30:43.301Z,34.96
2023-05-17T04:31:15.432Z,35.06
2023-05-17T04:31:46.776Z,35.12
2023-05-17T04:32:18.096Z,35.11
2023-05-17T04:32:49.536Z,34.98
2023-05-17T04:33:20.951Z,34.99
2023-05-17T04:33:52.437Z,34.94
2023-05-17T04:34:23.823Z,35.06
2023-05-17T04:34:55.151Z,34.86
2023-05-17T04:35:26.620Z,34.95
2023-05-17T04:35:57.987Z,34.82
2023-05-17T04:36:29.328Z,35.08
2023-05-17T04:37:00.653Z,34.84
2023-05-17T04:37:31.987Z,34.99
2023-05-17T04:38:03.307Z,34.96
2023-05-17T04:38:34.639Z,34.95
2023-05-17T04:39:05.953Z,34.95
2023-05-17T04:39:37.313Z,34.92
2023-05-17T04:40:08.882Z,34.89
2023-05-17T04:40:40.209Z,34.97
2023-05-17T04:41:11.623Z,34.89
2023-05-17T04:41:42.922Z,35.12
2023-05-17T04:42:14.220Z,35.05
2023-05-17T04:42:45.552Z,34.99
2023-05-17T04:43:16.891Z,34.84
2023-05-17T04:43:48.260Z,34.87
2023-05-17T04:44:19.625Z,34.89
2023-05-17T04:44:50.952Z,34.97
2023-05-17T04:45:22.270Z,35.03
2023-05-17T04:45:57.151Z,34.89
2023-05-17T04:46:28.461Z,35.11
2023-05-17T04:46:59.836Z,35.12
2023-05-17T04:47:31.201Z,35.10
2023-05-17T04:48:02.686Z,34.98
2023-05-17T04:48:34.192Z,35.14
2023-05-17T04:49:05.609Z,35.13
2023-05-17T04:49:36.917Z,35.07
2023-05-17T04:50:08.274Z,35.06
2023-05-17T04:50:39.605Z,35.27
2023-05-17T04:51:10.933Z,35.16
2023-05-17T04:51:42.242Z,35.08
2023-05-17T04:52:13.583Z,35.17
2023-05-17T04:52:45.587Z,35.00
2023-05-17T04:53:16.985Z,35.16
2023-05-17T04:53:48.344Z,35.05
2023-05-17T04:54:19.639Z,35.29
2023-05-17T04:54:50.958Z,35.13
2023-05-17T04:55:22.266Z,35.15
2023-05-17T04:55:53.586Z,34.87
2023-05-17T04:56:24.935Z,35.19
2023-05-17T04:56:56.237Z,35.02
2023-05-17T04:57:27.532Z,35.35
2023-05-17T04:57:58.856Z,35.25
2023-05-17T04:58:30.311Z,34.85
2023-05-17T04:59:01.867Z,35.26
2023-05-17T04:59:33.205Z,35.20
2023-05-17T05:00:04.986Z,35.16
2023-05-17T05:00:36.284Z,35.11
2023-05-17T05:01:07.609Z,35.33
2023-05-17T05:01:38.930Z,35.11
2023-05-17T05:02:10.270Z,35.25
2023-05-17T05:02:44.722Z,35.32
2023-05-17T05:03:16.199Z,35.25
2023-05-17T05:03:47.638Z,35.14
2023-05-17T05:04:20.082Z,35.03
2023-05-17T05:04:51.534Z,35.27
2023-05-17T05:05:22.936Z,35.33
2023-05-17T05:05:54.259Z,35.11
2023-05-17T05:06:25.579Z,35.12
2023-05-17T05:06:56.914Z,35.24
2023-05-17T05:07:28.286Z,35.27
2023-05-17T05:07:59.590Z,35.30
2023-05-17T05:08:30.886Z,35.40
2023-05-17T05:09:02.768Z,35.16
2023-05-17T05:09:34.095Z,35.33
2023-05-17T05:10:05.885Z,35.22
2023-05-17T05:10:37.245Z,35.06
2023-05-17T05:11:08.639Z,35.21
2023-05-17T05:11:39.978Z,35.42
2023-05-17T05:12:11.300Z,35.08
2023-05-17T05:12:42.626Z,35.21
2023-05-17T05:13:13.925Z,35.26
2023-05-17T05:13:45.242Z,35.20
2023-05-17T05:14:16.556Z,35.38
2023-05-17T05:14:47.962Z,35.36
2023-05-17T05:15:19.296Z,35.29
2023-05-17T05:15:50.606Z,35.47
2023-05-17T05:16:21.956Z,35.40
2023-05-17T05:16:53.257Z,35.45
2023-05-17T05:17:24.801Z,35.24
2023-05-17T05:17:56.296Z,35.50
2023-05-17T05:18:27.879Z,35.16
2023-05-17T05:18:59.570Z,35.20
2023-05-17T05:19:31.149Z,35.42
2023-05-17T05:20:02.630Z,35.17
2023-05-17T05:20:34.010Z,35.48
2023-05-17T05:21:05.296Z,35.36
2023-05-17T05:21:36.622Z,35.32
2023-05-17T05:22:07.964Z,35.04
2023-05-17T05:22:39.290Z,35.29
2023-05-17T05:23:10.641Z,35.22
2023-05-17T05:23:41.972Z,35.37
2023-05-17T05:24:13.329Z,35.42
2023-05-17T05:24:44.740Z,35.41
2023-05-17T05:25:16.081Z,35.21
2023-05-17T05:25:47.471Z,35.51
2023-05-17T05:26:18.805Z,35.46
2023-05-17T05:26:50.149Z,35.56
2023-05-17T05:27:21.455Z,35.48
2023-05-17T05:27:52.794Z,35.28
2023-05-17T05:28:24.106Z,35.15
2023-05-17T05:28:55.437Z,35.42
2023-05-17T05:29:26.765Z,35.46
2023-05-17T05:29:58.081Z,35.30
2023-05-17T05:30:29.392Z,35.47
2023-05-17T05:31:00.749Z,35.29
2023-05-17T05:31:32.275Z,35.28
2023-05-17T05:32:03.632Z,35.48
2023-05-17T05:32:35.089Z,35.48
2023-05-17T05:33:06.602Z,35.46
2023-05-17T05:33:38.138Z,35.42
2023-05-17T05:34:09.693Z,35.15
2023-05-17T05:34:41.079Z,35.15
2023-05-17T05:35:12.429Z,35.54
2023-05-17T05:35:43.725Z,35.46
2023-05-17T05:36:15.055Z,35.37
2023-05-17T05:36:46.393Z,35.43
2023-05-17T05:37:18.699Z,35.37
2023-05-17T05:37:50.086Z,35.55
2023-05-17T05:38:21.414Z,35.33
2023-05-17T05:38:52.812Z,35.46
2023-05-17T05:39:24.138Z,35.35
2023-05-17T05:39:55.478Z,35.40
2023-05-17T05:40:26.966Z,35.25
2023-05-17T05:40:58.399Z,35.27
2023-05-17T05:41:29.775Z,35.30
2023-05-17T05:42:01.107Z,35.49
2023-05-17T05:42:32.416Z,35.14
2023-05-17T05:43:03.744Z,35.30
2023-05-17T05:43:35.045Z,35.33
2023-05-17T05:44:06.435Z,35.13
2023-05-17T05:44:37.807Z,35.16
2023-05-17T05:45:09.848Z,35.13
2023-05-17T05:45:41.211Z,35.24
2023-05-17T05:46:12.556Z,35.18
2023-05-17T05:46:43.914Z,35.07
2023-05-17T05:47:15.230Z,35.01
2023-05-17T05:47:46.734Z,35.26
2023-05-17T05:48:18.177Z,35.17
2023-05-17T05:48:49.591Z,35.30
2023-05-17T05:49:21.066Z,35.34
2023-05-17T05:49:52.362Z,35.12
2023-05-17T05:50:23.678Z,35.35
2023-05-17T05:50:54.980Z,35.32
2023-05-17T05:51:26.334Z,35.34
2023-05-17T05:51:57.662Z,35.27
2023-05-17T05:52:28.959Z,35.02
2023-05-17T05:53:14.344Z,35.30
2023-05-17T05:53:49.246Z,35.21
2023-05-17T05:54:20.569Z,35.35
2023-05-17T05:54:51.892Z,35.08
2023-05-17T05:55:23.328Z,35.00
2023-05-17T05:55:54.715Z,35.02
2023-05-17T05:56:26.058Z,35.14
2023-05-17T05:56:57.414Z,35.40
2023-05-17T05:57:28.722Z,35.32
2023-05-17T05:58:00.036Z,35.00
2023-05-17T05:58:31.448Z,35.35
2023-05-17T05:59:02.770Z,35.23
2023-05-17T05:59:34.131Z,35.05
2023-05-17T06:00:05.786Z,35.42
2023-05-17T06:00:37.181Z,35.13
2023-05-17T06:01:08.566Z,35.00
2023-05-17T06:01:39.933Z,34.95
2023-05-17T06:02:11.287Z,35.02
2023-05-17T06:02:42.696Z,35.19
2023-05-17T06:03:14.367Z,35.20
2023-05-17T06:03:45.727Z,34.98
2023-05-17T06:04:17.091Z,34.82
2023-05-17T06:04:48.450Z,35.25
2023-05-17T06:05:19.873Z,35.20
2023-05-17T06:05:51.260Z,35.06
2023-05-17T06:06:22.724Z,35.25
2023-05-17T06:06:54.435Z,35.26
2023-05-17T06:07:25.896Z,34.91
2023-05-17T06:07:57.221Z,35.31
2023-05-17T06:08:28.514Z,34.96
2023-05-17T06:08:59.982Z,35.02
2023-05-17T06:09:31.300Z,34.83
2023-05-17T06:10:02.668Z,34.77
2023-05-17T06:10:33.958Z,35.18
2023-05-17T06:11:05.297Z,35.03
2023-05-17T06:11:36.641Z,34.93
2023-05-17T06:12:08.092Z,35.14
2023-05-17T06:12:39.424Z,34.81
2023-05-17T06:13:10.721Z,35.14
2023-05-17T06:13:42.009Z,35.20
2023-05-17T06:14:13.337Z,35.04
2023-05-17T06:14:44.672Z,35.19
2023-05-17T06:15:16.055Z,35.09
2023-05-17T06:15:47.363Z,35.04
2023-05-17T06:16:18.678Z,35.13
2023-05-17T06:16:50.031Z,35.02
2023-05-17T06:17:21.464Z,34.88
2023-05-17T06:17:53.014Z,35.08
2023-05-17T06:18:24.479Z,34.88
2023-05-17T06:18:55.953Z,35.00
2023-05-17T06:19:27.605Z,34.88
2023-05-17T06:19:59.288Z,35.03
2023-05-17T06:20:31.010Z,34.82
2023-05-17T06:21:02.577Z,34.90
2023-05-17T06:21:33.920Z,35.00
2023-05-17T06:22:05.331Z,35.11
2023-05-17T06:22:36.652Z,34.71
2023-05-17T06:23:07.990Z,35.17
2023-05-17T06:23:39.335Z,34.88
2023-05-17T06:24:10.673Z,34.88
2023-05-17T06:24:41.979Z,35.04
2023-05-17T06:25:13.307Z,34.91
2023-05-17T06:25:44.616Z,34.84
2023-05-17T06:26:15.960Z,35.13
2023-05-17T06:26:47.285Z,34.86
2023-05-17T06:27:18.596Z,34.94
2023-05-17T06:27:49.928Z,34.95
2023-05-17T06:28:21.279Z,35.04
2023-05-17T06:28:52.726Z,34.94
2023-05-17T06:29:24.187Z,34.90
2023-05-17T06:29:55.518Z,34.96
2023-05-17T06:30:27.093Z,34.83
2023-05-17T06:30:58.684Z,34.60
2023-05-17T06:31:29.986Z,34.69
2023-05-17T06:32:01.299Z,34.79
2023-05-17T06:32:32.694Z,34.67
2023-05-17T06:33:04.132Z,34.90
2023-05-17T06:33:37.970Z,35.00
2023-05-17T06:34:09.382Z,34.58
2023-05-17T06:34:40.733Z,34.70
2023-05-17T06:35:12.052Z,35.07
2023-05-17T06:35:55.652Z,34.82
2023-05-17T06:36:27.827Z,34.90
2023-05-17T06:36:59.289Z,34.92
2023-05-17T06:37:30.624Z,34.74
2023-05-17T06:38:02.130Z,34.94
2023-05-17T06:38:33.487Z,34.64
2023-05-17T06:39:04.823Z,34.62
2023-05-17T06:39:36.142Z,34.96
2023-05-17T06:40:42.118Z,34.77
2023-05-17T06:41:13.465Z,34.94
2023-05-17T06:41:44.781Z,35.00
2023-05-17T06:42:17.821Z,34.99
2023-05-17T06:42:50.125Z,34.87
2023-05-17T06:43:21.583Z,34.72
2023-05-17T06:43:52.908Z,34.99
2023-05-17T06:44:24.275Z,34.80
2023-05-17T06:44:55.615Z,35.02
2023-05-17T06:45:26.988Z,34.89
2023-05-17T06:45:58.345Z,35.04
2023-05-17T06:46:29.685Z,34.77
2023-05-17T06:47:01.021Z,34.65
2023-05-17T06:47:32.421Z,35.08
2023-05-17T06:48:04.008Z,35.09
2023-05-17T06:48:35.571Z,35.13
2023-05-17T06:49:07.057Z,34.90
2023-05-17T06:49:38.415Z,34.90
2023-05-17T06:50:09.745Z,35.03
2023-05-17T06:50:43.108Z,35.13
2023-05-17T06:51:14.462Z,34.73
2023-05-17T06:51:45.771Z,34.74
2023-05-17T06:52:17.298Z,34.66